createdAt,value
2022-09-01T00:00:30.796Z,7.70
2022-09-01T00:01:03.519Z,7.77
2022-09-01T00:01:41.602Z,7.63
2022-09-01T00:02:16.814Z,7.77
2022-09-01T00:02:50.902Z,7.37
2022-09-01T00:03:23.911Z,7.70
2022-09-01T00:04:03.269Z,7.50
2022-09-01T00:04:38.983Z,8.23
2022-09-01T00:05:13.020Z,7.70
2022-09-01T00:05:50.017Z,6.83
2022-09-01T00:06:25.023Z,7.93
2022-09-01T00:06:59.942Z,7.00
2022-09-01T00:07:35.486Z,7.77
2022-09-01T00:08:07.789Z,7.40
2022-09-01T00:08:40.150Z,7.60
2022-09-01T00:09:14.681Z,7.13
2022-09-01T00:09:49.965Z,8.10
2022-09-01T00:10:22.566Z,7.23
2022-09-01T00:10:57.530Z,7.10
2022-09-01T00:11:30.856Z,7.50
2022-09-01T00:12:05.026Z,7.47
2022-09-01T00:12:40.567Z,8.03
2022-09-01T00:13:13.057Z,7.30
2022-09-01T00:13:45.406Z,7.60
2022-09-01T00:14:29.704Z,7.50
2022-09-01T00:15:05.278Z,7.90
2022-09-01T00:15:37.760Z,7.40
2022-09-01T00:16:16.730Z,7.53
2022-09-01T00:16:50.199Z,7.73
2022-09-01T00:17:25.029Z,7.70
2022-09-01T00:17:59.945Z,7.30
2022-09-01T00:18:32.878Z,7.73
2022-09-01T00:19:05.685Z,7.40
2022-09-01T00:19:41.598Z,7.80
2022-09-01T00:20:19.601Z,7.47
2022-09-01T00:20:52.734Z,7.30
2022-09-01T00:21:33.558Z,7.87
2022-09-01T00:22:06.470Z,7.63
2022-09-01T00:22:41.525Z,7.53
2022-09-01T00:23:13.910Z,7.07
2022-09-01T00:23:46.514Z,7.50
2022-09-01T00:24:22.321Z,7.17
2022-09-01T00:24:55.013Z,7.70
2022-09-01T00:25:28.311Z,7.87
2022-09-01T00:26:03.320Z,6.87
2022-09-01T00:26:35.997Z,7.50
2022-09-01T00:27:08.418Z,7.77
2022-09-01T00:27:44.389Z,7.67
2022-09-01T00:28:16.726Z,7.40
2022-09-01T00:28:49.815Z,7.20
2022-09-01T00:29:25.214Z,7.70
2022-09-01T00:29:57.526Z,8.20
2022-09-01T00:30:29.866Z,7.47
2022-09-01T00:31:05.252Z,7.57
2022-09-01T00:31:38.404Z,7.77
2022-09-01T00:32:11.034Z,7.33
2022-09-01T00:32:47.004Z,7.93
2022-09-01T00:33:19.627Z,7.53
2022-09-01T00:33:52.544Z,8.53
2022-09-01T00:34:27.497Z,8.17
2022-09-01T00:34:59.891Z,7.67
2022-09-01T00:35:32.338Z,8.00
2022-09-01T00:36:12.554Z,8.10
2022-09-01T00:36:48.251Z,8.20
2022-09-01T00:37:23.262Z,8.90
2022-09-01T00:37:55.601Z,8.30
2022-09-01T00:38:30.066Z,8.00
2022-09-01T00:39:05.763Z,8.40
2022-09-01T00:39:38.124Z,8.60
2022-09-01T00:40:13.294Z,8.53
2022-09-01T00:40:48.391Z,8.83
2022-09-01T00:41:22.927Z,8.40
2022-09-01T00:41:59.761Z,8.60
2022-09-01T00:42:32.271Z,8.47
2022-09-01T00:43:13.070Z,9.47
2022-09-01T00:43:49.977Z,8.73
2022-09-01T00:44:24.371Z,8.37
2022-09-01T00:44:57.161Z,8.67
2022-09-01T00:45:32.465Z,8.90
2022-09-01T00:46:06.249Z,8.57
2022-09-01T00:46:49.579Z,8.03
2022-09-01T00:47:25.328Z,9.33
2022-09-01T00:47:57.711Z,8.87
2022-09-01T00:48:30.093Z,9.27
2022-09-01T00:49:08.022Z,9.10
2022-09-01T00:49:42.686Z,8.27
2022-09-01T00:50:19.571Z,8.90
2022-09-01T00:50:54.673Z,9.00
2022-09-01T00:51:28.976Z,8.87
2022-09-01T00:52:09.498Z,9.00
2022-09-01T00:52:45.229Z,8.67
2022-09-01T00:53:17.576Z,8.43
2022-09-01T00:53:52.755Z,8.83
2022-09-01T00:54:27.744Z,8.63
2022-09-01T00:55:04.505Z,8.17
2022-09-01T00:55:40.497Z,8.03
2022-09-01T00:56:13.565Z,8.73
2022-09-01T00:56:46.659Z,7.97
2022-09-01T00:57:24.928Z,8.97
2022-09-01T00:57:57.770Z,8.97
2022-09-01T00:58:30.717Z,8.50
2022-09-01T00:59:06.301Z,8.60
2022-09-01T00:59:40.103Z,8.57
2022-09-01T01:00:15.563Z,8.73
2022-09-01T01:00:52.841Z,7.57
2022-09-01T01:01:25.191Z,9.47
2022-09-01T01:01:58.414Z,8.47
2022-09-01T01:02:33.464Z,8.80
2022-09-01T01:03:05.874Z,8.70
2022-09-01T01:03:45.600Z,7.97
2022-09-01T01:04:20.888Z,8.93
2022-09-01T01:04:56.203Z,8.70
2022-09-01T01:05:33.364Z,8.27
2022-09-01T01:06:11.343Z,8.60
2022-09-01T01:06:49.837Z,8.27
2022-09-01T01:07:27.354Z,8.20
2022-09-01T01:08:02.703Z,8.67
2022-09-01T01:08:39.339Z,8.30
2022-09-01T01:09:12.516Z,8.50
2022-09-01T01:09:49.009Z,8.53
2022-09-01T01:10:22.681Z,8.30
2022-09-01T01:10:55.037Z,7.80
2022-09-01T01:11:32.466Z,8.10
2022-09-01T01:12:06.009Z,9.23
2022-09-01T01:12:40.545Z,8.77
2022-09-01T01:13:17.771Z,8.17
2022-09-01T01:13:54.803Z,8.80
2022-09-01T01:14:31.527Z,8.40
2022-09-01T01:15:07.703Z,7.70
2022-09-01T01:15:43.999Z,7.70
2022-09-01T01:16:16.442Z,8.10
2022-09-01T01:16:53.843Z,8.33
2022-09-01T01:17:26.817Z,8.13
2022-09-01T01:17:59.143Z,8.40
2022-09-01T01:18:34.189Z,8.10
2022-09-01T01:19:27.428Z,8.10
2022-09-01T01:20:14.971Z,8.10
2022-09-01T01:21:03.602Z,8.17
2022-09-01T01:21:58.322Z,8.20
2022-09-01T01:22:52.249Z,7.83
2022-09-01T01:23:29.789Z,8.80
2022-09-01T01:24:09.424Z,8.50
2022-09-01T01:24:46.215Z,9.23
2022-09-01T01:25:19.301Z,8.43
2022-09-01T01:25:57.595Z,9.17
2022-09-01T01:26:30.826Z,8.30
2022-09-01T01:27:03.549Z,8.30
2022-09-01T01:27:42.882Z,8.13
2022-09-01T01:28:18.982Z,8.37
2022-09-01T01:28:56.488Z,8.50
2022-09-01T01:29:37.274Z,8.30
2022-09-01T01:30:12.150Z,8.90
2022-09-01T01:30:51.183Z,8.20
2022-09-01T01:31:27.106Z,8.77
2022-09-01T01:32:00.774Z,8.67
2022-09-01T01:32:33.741Z,8.83
2022-09-01T01:33:10.417Z,8.00
2022-09-01T01:33:46.744Z,8.30
2022-09-01T01:34:20.362Z,8.60
2022-09-01T01:34:56.334Z,8.23
2022-09-01T01:35:29.796Z,8.53
2022-09-01T01:36:03.806Z,9.20
2022-09-01T01:36:41.802Z,8.20
2022-09-01T01:37:20.362Z,7.80
2022-09-01T01:37:53.994Z,8.40
2022-09-01T01:38:30.334Z,8.73
2022-09-01T01:39:06.978Z,9.30
2022-09-01T01:39:42.897Z,8.83
2022-09-01T01:40:23.641Z,8.73
2022-09-01T01:40:56.467Z,8.30
2022-09-01T01:41:32.118Z,8.57
2022-09-01T01:42:09.411Z,8.80
2022-09-01T01:42:44.370Z,8.97
2022-09-01T01:43:20.157Z,8.50
2022-09-01T01:43:55.222Z,8.27
2022-09-01T01:44:28.442Z,7.77
2022-09-01T01:45:08.180Z,8.50
2022-09-01T01:45:43.284Z,8.30
2022-09-01T01:46:19.352Z,8.00
2022-09-01T01:46:54.752Z,8.57
2022-09-01T01:47:30.785Z,7.70
2022-09-01T01:48:06.206Z,8.10
2022-09-01T01:48:41.733Z,8.30
2022-09-01T01:49:20.917Z,8.00
2022-09-01T01:49:55.726Z,8.27
2022-09-01T01:50:30.006Z,7.53
2022-09-01T01:51:05.942Z,8.80
2022-09-01T01:51:38.318Z,8.00
2022-09-01T01:52:14.921Z,7.97
2022-09-01T01:52:58.288Z,8.50
2022-09-01T01:53:32.374Z,8.27
2022-09-01T01:54:05.843Z,8.10
2022-09-01T01:54:41.939Z,7.80
2022-09-01T01:55:19.499Z,8.20
2022-09-01T01:55:52.192Z,8.70
2022-09-01T01:56:28.165Z,8.77
2022-09-01T01:57:01.051Z,8.40
2022-09-01T01:57:34.824Z,8.00
2022-09-01T01:58:12.457Z,8.60
2022-09-01T01:58:47.970Z,8.53
2022-09-01T01:59:22.740Z,8.20
2022-09-01T01:59:57.631Z,8.57
2022-09-01T02:00:32.379Z,8.20
2022-09-01T02:01:04.765Z,8.77
2022-09-01T02:01:39.882Z,8.73
2022-09-01T02:02:13.069Z,8.20
2022-09-01T02:02:52.888Z,8.80
2022-09-01T02:03:30.918Z,8.00
2022-09-01T02:04:05.873Z,9.13
2022-09-01T02:04:40.230Z,8.83
2022-09-01T02:05:21.008Z,9.10
2022-09-01T02:05:54.724Z,8.70
2022-09-01T02:06:28.552Z,8.57
2022-09-01T02:07:06.484Z,8.77
2022-09-01T02:07:40.165Z,8.20
2022-09-01T02:08:13.280Z,8.87
2022-09-01T02:08:48.217Z,8.60
2022-09-01T02:09:23.372Z,8.90
2022-09-01T02:09:56.533Z,7.97
2022-09-01T02:10:37.495Z,8.40
2022-09-01T02:11:09.933Z,7.73
2022-09-01T02:11:44.125Z,9.00
2022-09-01T02:12:19.742Z,8.13
2022-09-01T02:12:52.370Z,7.73
2022-09-01T02:13:31.436Z,8.90
2022-09-01T02:14:07.761Z,8.43
2022-09-01T02:14:40.277Z,8.43
2022-09-01T02:15:12.817Z,8.83
2022-09-01T02:15:49.479Z,7.80
2022-09-01T02:16:23.130Z,8.60
2022-09-01T02:16:56.251Z,8.40
2022-09-01T02:17:31.373Z,8.30
2022-09-01T02:18:05.218Z,7.93
2022-09-01T02:18:42.134Z,8.10
2022-09-01T02:19:19.689Z,9.10
2022-09-01T02:19:56.878Z,8.97
2022-09-01T02:20:29.750Z,8.90
2022-09-01T02:21:15.093Z,8.63
2022-09-01T02:21:54.422Z,8.47
2022-09-01T02:22:26.877Z,8.60
2022-09-01T02:23:10.813Z,8.20
2022-09-01T02:23:43.953Z,7.60
2022-09-01T02:24:18.850Z,8.37
2022-09-01T02:24:53.641Z,9.10
2022-09-01T02:25:27.642Z,8.57
2022-09-01T02:26:16.067Z,8.97
2022-09-01T02:26:49.666Z,8.47
2022-09-01T02:27:29.660Z,8.43
2022-09-01T02:28:04.249Z,8.20
2022-09-01T02:28:40.173Z,8.53
2022-09-01T02:29:21.104Z,8.10
2022-09-01T02:29:54.746Z,8.57
2022-09-01T02:30:27.906Z,8.50
2022-09-01T02:31:03.987Z,8.60
2022-09-01T02:31:39.381Z,9.47
2022-09-01T02:32:11.813Z,8.50
2022-09-01T02:32:47.359Z,8.83
2022-09-01T02:33:20.027Z,8.10
2022-09-01T02:33:54.647Z,8.60
2022-09-01T02:34:32.066Z,8.30
2022-09-01T02:35:10.165Z,8.97
2022-09-01T02:35:43.234Z,8.80
2022-09-01T02:36:20.865Z,8.07
2022-09-01T02:36:54.738Z,9.17
2022-09-01T02:37:29.837Z,8.40
2022-09-01T02:38:05.153Z,9.13
2022-09-01T02:38:39.934Z,8.50
2022-09-01T02:39:14.897Z,9.40
2022-09-01T02:39:47.274Z,8.40
2022-09-01T02:40:20.147Z,8.30
2022-09-01T02:40:55.630Z,9.67
2022-09-01T02:41:34.679Z,8.63
2022-09-01T02:42:08.537Z,8.87
2022-09-01T02:42:43.757Z,9.17
2022-09-01T02:43:19.695Z,8.43
2022-09-01T02:43:54.313Z,8.50
2022-09-01T02:44:29.288Z,9.37
2022-09-01T02:45:03.422Z,8.50
2022-09-01T02:45:39.225Z,8.50
2022-09-01T02:46:11.950Z,8.30
2022-09-01T02:46:46.722Z,9.40
2022-09-01T02:47:23.284Z,8.07
2022-09-01T02:47:57.409Z,9.03
2022-09-01T02:48:35.978Z,8.27
2022-09-01T02:49:15.433Z,9.70
2022-09-01T02:49:47.783Z,8.63
2022-09-01T02:50:22.652Z,8.97
2022-09-01T02:50:59.500Z,9.37
2022-09-01T02:51:32.278Z,8.60
2022-09-01T02:52:08.214Z,9.00
2022-09-01T02:52:40.638Z,9.83
2022-09-01T02:53:15.559Z,8.93
2022-09-01T02:53:53.283Z,8.73
2022-09-01T02:54:26.145Z,9.27
2022-09-01T02:54:59.499Z,8.70
2022-09-01T02:55:34.527Z,8.80
2022-09-01T02:56:13.859Z,8.70
2022-09-01T02:56:54.553Z,8.57
2022-09-01T02:57:29.557Z,8.50
2022-09-01T02:58:02.501Z,9.00
2022-09-01T02:58:40.959Z,8.60
2022-09-01T02:59:16.014Z,9.07
2022-09-01T02:59:48.605Z,8.87
2022-09-01T03:00:31.536Z,9.17
2022-09-01T03:01:17.290Z,9.10
2022-09-01T03:01:51.370Z,9.30
2022-09-01T03:02:27.126Z,8.73
2022-09-01T03:03:03.414Z,9.00
2022-09-01T03:03:35.924Z,9.03
2022-09-01T03:04:09.870Z,9.00
2022-09-01T03:04:45.793Z,9.00
2022-09-01T03:05:25.378Z,8.53
2022-09-01T03:05:59.562Z,8.73
2022-09-01T03:06:36.569Z,8.63
2022-09-01T03:07:09.109Z,9.43
2022-09-01T03:07:42.661Z,8.67
2022-09-01T03:08:17.981Z,8.73
2022-09-01T03:08:51.483Z,8.93
2022-09-01T03:09:24.263Z,8.80
2022-09-01T03:10:00.393Z,8.90
2022-09-01T03:10:35.616Z,9.07
2022-09-01T03:11:13.011Z,8.47
2022-09-01T03:11:53.057Z,9.47
2022-09-01T03:12:25.556Z,9.43
2022-09-01T03:12:58.125Z,7.87
2022-09-01T03:13:31.486Z,8.50
2022-09-01T03:14:07.788Z,8.03
2022-09-01T03:14:40.195Z,8.93
2022-09-01T03:15:13.421Z,8.33
2022-09-01T03:15:45.973Z,8.90
2022-09-01T03:16:22.758Z,8.77
2022-09-01T03:16:57.857Z,8.70
2022-09-01T03:17:39.354Z,8.43
2022-09-01T03:18:15.482Z,8.83
2022-09-01T03:18:47.817Z,8.90
2022-09-01T03:19:27.353Z,8.43
2022-09-01T03:19:59.842Z,9.23
2022-09-01T03:20:36.638Z,8.13
2022-09-01T03:21:16.247Z,8.93
2022-09-01T03:21:49.457Z,8.23
2022-09-01T03:22:27.171Z,8.73
2022-09-01T03:22:59.496Z,9.30
2022-09-01T03:23:34.987Z,8.73
2022-09-01T03:24:09.143Z,9.03
2022-09-01T03:24:41.518Z,8.00
2022-09-01T03:25:16.906Z,8.70
2022-09-01T03:25:50.891Z,9.07
2022-09-01T03:26:24.897Z,7.87
2022-09-01T03:27:04.283Z,9.33
2022-09-01T03:27:36.721Z,9.57
2022-09-01T03:28:12.557Z,8.00
2022-09-01T03:28:50.786Z,8.40
2022-09-01T03:29:24.771Z,8.37
2022-09-01T03:29:58.352Z,9.10
2022-09-01T03:30:34.993Z,8.57
2022-09-01T03:31:09.858Z,8.67
2022-09-01T03:31:50.075Z,8.57
2022-09-01T03:32:23.137Z,8.03
2022-09-01T03:32:55.866Z,8.60
2022-09-01T03:33:32.821Z,9.70
2022-09-01T03:34:06.557Z,8.23
2022-09-01T03:34:51.393Z,8.97
2022-09-01T03:35:24.014Z,8.70
2022-09-01T03:35:57.307Z,8.80
2022-09-01T03:36:33.886Z,8.80
2022-09-01T03:37:09.845Z,8.80
2022-09-01T03:37:44.410Z,8.77
2022-09-01T03:38:22.225Z,8.60
2022-09-01T03:38:56.068Z,8.70
2022-09-01T03:39:29.795Z,8.07
2022-09-01T03:40:09.113Z,7.87
2022-09-01T03:40:41.746Z,8.03
2022-09-01T03:41:14.642Z,8.60
2022-09-01T03:41:50.715Z,8.07
2022-09-01T03:42:29.741Z,8.37
2022-09-01T03:43:04.805Z,8.57
2022-09-01T03:43:45.995Z,8.30
2022-09-01T03:44:20.894Z,8.50
2022-09-01T03:44:56.615Z,8.20
2022-09-01T03:45:29.733Z,8.27
2022-09-01T03:46:02.272Z,8.10
2022-09-01T03:46:38.255Z,8.23
2022-09-01T03:47:11.306Z,8.77
2022-09-01T03:47:44.114Z,8.20
2022-09-01T03:48:17.430Z,8.30
2022-09-01T03:48:58.806Z,8.50
2022-09-01T03:49:32.114Z,8.40
2022-09-01T03:50:06.436Z,8.20
2022-09-01T03:50:46.286Z,8.90
2022-09-01T03:51:19.811Z,8.13
2022-09-01T03:51:54.050Z,7.87
2022-09-01T03:52:32.026Z,8.70
2022-09-01T03:53:04.459Z,8.80
2022-09-01T03:53:39.717Z,8.87
2022-09-01T03:54:15.054Z,8.43
2022-09-01T03:54:51.183Z,8.00
2022-09-01T03:55:30.094Z,8.57
2022-09-01T03:56:06.427Z,8.43
2022-09-01T03:56:41.935Z,8.80
2022-09-01T03:57:19.769Z,9.67
2022-09-01T03:58:00.450Z,8.10
2022-09-01T03:58:33.094Z,8.57
2022-09-01T03:59:07.676Z,8.20
2022-09-01T03:59:45.404Z,8.97
2022-09-01T04:00:20.619Z,8.57
2022-09-01T04:00:56.646Z,8.40
2022-09-01T04:01:38.141Z,9.30
2022-09-01T04:02:13.200Z,9.00
2022-09-01T04:02:46.577Z,9.00
2022-09-01T04:03:37.189Z,9.00
2022-09-01T04:04:14.076Z,8.80
2022-09-01T04:04:46.960Z,8.80
2022-09-01T04:05:34.021Z,8.80
2022-09-01T04:06:09.766Z,9.03
2022-09-01T04:06:42.819Z,8.20
2022-09-01T04:07:19.347Z,8.53
2022-09-01T04:07:52.202Z,7.90
2022-09-01T04:08:32.634Z,9.10
2022-09-01T04:09:08.758Z,8.03
2022-09-01T04:09:42.603Z,8.97
2022-09-01T04:10:17.886Z,8.90
2022-09-01T04:10:52.608Z,8.00
2022-09-01T04:11:30.901Z,8.00
2022-09-01T04:12:06.610Z,8.40
2022-09-01T04:12:39.834Z,8.97
2022-09-01T04:13:14.831Z,8.43
2022-09-01T04:13:51.202Z,8.43
2022-09-01T04:14:25.704Z,8.73
2022-09-01T04:15:01.490Z,8.73
2022-09-01T04:15:40.585Z,7.90
2022-09-01T04:16:35.506Z,8.83
2022-09-01T04:17:30.332Z,9.20
2022-09-01T04:18:09.996Z,8.90
2022-09-01T04:18:42.722Z,8.20
2022-09-01T04:19:20.589Z,8.77
2022-09-01T04:19:56.238Z,8.47
2022-09-01T04:20:29.273Z,8.37
2022-09-01T04:21:01.645Z,8.17
2022-09-01T04:21:34.438Z,8.07
2022-09-01T04:22:13.595Z,8.40
2022-09-01T04:22:47.779Z,8.00
2022-09-01T04:23:26.929Z,8.93
2022-09-01T04:24:05.358Z,8.63
2022-09-01T04:24:45.055Z,8.30
2022-09-01T04:25:26.648Z,8.43
2022-09-01T04:26:00.916Z,8.40
2022-09-01T04:26:34.719Z,8.60
2022-09-01T04:27:15.036Z,8.77
2022-09-01T04:27:48.730Z,8.43
2022-09-01T04:28:26.260Z,8.63
2022-09-01T04:29:03.408Z,7.97
2022-09-01T04:29:38.513Z,8.57
2022-09-01T04:30:12.040Z,9.10
2022-09-01T04:30:53.796Z,8.60
2022-09-01T04:31:27.516Z,8.00
2022-09-01T04:32:13.154Z,8.77
2022-09-01T04:32:49.557Z,8.30
2022-09-01T04:33:23.025Z,8.70
2022-09-01T04:33:58.412Z,8.50
2022-09-01T04:34:37.453Z,8.30
2022-09-01T04:35:17.106Z,8.50
2022-09-01T04:35:56.727Z,8.13
2022-09-01T04:36:34.227Z,8.37
2022-09-01T04:37:16.050Z,9.00
2022-09-01T04:37:52.072Z,8.20
2022-09-01T04:38:25.109Z,8.70
2022-09-01T04:39:00.797Z,8.30
2022-09-01T04:39:36.690Z,9.00
2022-09-01T04:40:13.572Z,8.20
2022-09-01T04:40:57.455Z,8.10
2022-09-01T04:41:33.502Z,9.13
2022-09-01T04:42:09.331Z,8.40
2022-09-01T04:42:45.193Z,7.73
2022-09-01T04:43:17.970Z,7.70
2022-09-01T04:43:56.598Z,7.53
2022-09-01T04:44:31.626Z,7.80
2022-09-01T04:45:11.413Z,7.90
2022-09-01T04:45:51.082Z,8.60
2022-09-01T04:46:29.668Z,8.60
2022-09-01T04:47:02.001Z,7.60
2022-09-01T04:47:36.184Z,8.00
2022-09-01T04:48:15.049Z,8.20
2022-09-01T04:48:48.726Z,8.20
2022-09-01T04:49:33.918Z,8.30
2022-09-01T04:50:14.558Z,8.30
2022-09-01T04:50:52.128Z,8.10
2022-09-01T04:51:35.786Z,8.13
2022-09-01T04:52:08.391Z,8.60
2022-09-01T04:52:42.203Z,8.77
2022-09-01T04:53:28.583Z,8.77
2022-09-01T04:54:03.090Z,9.40
2022-09-01T04:54:37.849Z,8.70
2022-09-01T04:55:17.987Z,8.50
2022-09-01T04:55:54.606Z,9.30
2022-09-01T04:56:36.401Z,9.10
2022-09-01T04:57:16.760Z,8.70
2022-09-01T04:57:50.172Z,8.50
2022-09-01T04:58:23.271Z,8.60
2022-09-01T04:59:01.019Z,8.37
2022-09-01T04:59:34.159Z,8.60
2022-09-01T05:00:22.456Z,8.53
2022-09-01T05:00:57.688Z,8.20
2022-09-01T05:01:30.147Z,8.53
2022-09-01T05:02:02.617Z,9.13
2022-09-01T05:02:39.792Z,8.00
2022-09-01T05:03:12.294Z,8.57
2022-09-01T05:04:04.055Z,8.90
2022-09-01T05:04:46.576Z,8.40
2022-09-01T05:05:20.005Z,8.97
2022-09-01T05:05:56.130Z,8.50
2022-09-01T05:06:33.650Z,8.50
2022-09-01T05:07:08.538Z,8.70
2022-09-01T05:07:46.998Z,7.97
2022-09-01T05:08:24.201Z,8.47
2022-09-01T05:08:59.501Z,8.50
2022-09-01T05:09:58.009Z,8.50
2022-09-01T05:11:06.335Z,8.10
2022-09-01T05:11:50.829Z,9.00
2022-09-01T05:12:33.240Z,9.30
2022-09-01T05:13:10.038Z,8.07
2022-09-01T05:13:43.450Z,8.60
2022-09-01T05:14:19.139Z,8.53
2022-09-01T05:14:56.159Z,8.27
2022-09-01T05:15:30.874Z,9.03
2022-09-01T05:16:13.172Z,8.50
2022-09-01T05:16:47.125Z,8.43
2022-09-01T05:17:26.206Z,8.90
2022-09-01T05:18:02.434Z,8.50
2022-09-01T05:18:35.569Z,9.20
2022-09-01T05:19:14.877Z,8.90
2022-09-01T05:19:51.270Z,8.83
2022-09-01T05:20:30.275Z,8.53
2022-09-01T05:21:09.968Z,8.37
2022-09-01T05:21:45.807Z,8.47
2022-09-01T05:22:22.423Z,8.70
2022-09-01T05:23:13.485Z,8.80
2022-09-01T05:23:50.605Z,8.97
2022-09-01T05:24:30.348Z,8.27
2022-09-01T05:25:11.946Z,8.80
2022-09-01T05:25:49.294Z,8.27
2022-09-01T05:26:23.938Z,9.43
2022-09-01T05:27:00.639Z,8.80
2022-09-01T05:27:33.697Z,8.57
2022-09-01T05:28:06.535Z,9.03
2022-09-01T05:28:41.753Z,9.77
2022-09-01T05:29:17.844Z,10.60
2022-09-01T05:29:54.278Z,9.60
2022-09-01T05:30:31.147Z,10.43
2022-09-01T05:31:05.020Z,9.20
2022-09-01T05:31:39.047Z,9.60
2022-09-01T05:32:14.149Z,8.97
2022-09-01T05:32:49.334Z,8.33
2022-09-01T05:33:23.550Z,9.40
2022-09-01T05:33:59.146Z,9.23
2022-09-01T05:34:32.560Z,8.73
2022-09-01T05:35:08.337Z,9.40
2022-09-01T05:35:45.210Z,8.90
2022-09-01T05:36:20.270Z,8.93
2022-09-01T05:36:53.409Z,8.63
2022-09-01T05:37:28.941Z,8.33
2022-09-01T05:38:01.365Z,8.93
2022-09-01T05:38:34.238Z,9.50
2022-09-01T05:39:12.286Z,8.37
2022-09-01T05:39:44.705Z,8.70
2022-09-01T05:40:17.815Z,8.57
2022-09-01T05:41:02.208Z,8.83
2022-09-01T05:41:35.857Z,8.40
2022-09-01T05:42:08.621Z,8.73
2022-09-01T05:42:46.033Z,8.77
2022-09-01T05:43:18.853Z,8.77
2022-09-01T05:43:57.832Z,8.40
2022-09-01T05:44:44.321Z,8.63
2022-09-01T05:45:24.814Z,8.70
2022-09-01T05:46:06.653Z,8.77
2022-09-01T05:46:44.119Z,8.67
2022-09-01T05:47:20.976Z,8.40
2022-09-01T05:47:56.381Z,8.50
2022-09-01T05:48:32.123Z,8.80
2022-09-01T05:49:07.127Z,8.83
2022-09-01T05:49:45.306Z,8.60
2022-09-01T05:50:19.637Z,8.23
2022-09-01T05:50:56.343Z,7.90
2022-09-01T05:51:44.452Z,8.17
2022-09-01T05:52:25.113Z,7.93
2022-09-01T05:53:02.743Z,8.17
2022-09-01T05:53:36.277Z,9.00
2022-09-01T05:54:09.889Z,7.80
2022-09-01T05:54:49.483Z,8.67
2022-09-01T05:55:23.214Z,8.30
2022-09-01T05:55:57.119Z,8.00
2022-09-01T05:56:34.027Z,8.93
2022-09-01T05:57:23.776Z,8.10
2022-09-01T05:58:03.517Z,8.50
2022-09-01T05:59:34.263Z,7.77
2022-09-01T06:00:14.919Z,8.90
2022-09-01T06:00:52.113Z,8.83
2022-09-01T06:01:26.542Z,8.00
2022-09-01T06:02:02.946Z,8.40
2022-09-01T06:02:36.259Z,8.10
2022-09-01T06:03:14.450Z,8.00
2022-09-01T06:03:50.801Z,8.33
2022-09-01T06:04:25.779Z,8.10
2022-09-01T06:05:01.425Z,9.00
2022-09-01T06:05:38.230Z,8.77
2022-09-01T06:06:18.070Z,8.00
2022-09-01T06:07:08.809Z,8.53
2022-09-01T06:07:47.324Z,8.57
2022-09-01T06:08:21.564Z,8.30
2022-09-01T06:08:59.025Z,8.90
2022-09-01T06:09:35.124Z,9.20
2022-09-01T06:10:08.819Z,8.07
2022-09-01T06:10:42.835Z,8.83
2022-09-01T06:11:18.249Z,7.43
2022-09-01T06:11:50.653Z,7.90
2022-09-01T06:12:24.122Z,7.57
2022-09-01T06:13:02.731Z,7.73
2022-09-01T06:13:35.742Z,8.17
2022-09-01T06:14:11.337Z,8.40
2022-09-01T06:14:43.931Z,8.07
2022-09-01T06:15:21.092Z,7.43
2022-09-01T06:16:02.149Z,7.80
2022-09-01T06:16:36.235Z,8.03
2022-09-01T06:17:11.756Z,7.83
2022-09-01T06:17:47.271Z,8.23
2022-09-01T06:18:21.785Z,8.57
2022-09-01T06:19:01.122Z,8.53
2022-09-01T06:19:37.317Z,8.60
2022-09-01T06:20:10.978Z,8.00
2022-09-01T06:20:47.993Z,8.53
2022-09-01T06:21:25.590Z,8.77
2022-09-01T06:21:58.089Z,7.90
2022-09-01T06:22:30.492Z,8.30
2022-09-01T06:23:06.530Z,8.60
2022-09-01T06:23:38.982Z,8.47
2022-09-01T06:24:11.302Z,8.73
2022-09-01T06:24:53.336Z,7.13
2022-09-01T06:25:30.645Z,8.37
2022-09-01T06:26:08.237Z,8.50
2022-09-01T06:26:41.061Z,7.77
2022-09-01T06:27:13.511Z,8.80
2022-09-01T06:27:49.933Z,8.40
2022-09-01T06:28:24.178Z,8.00
2022-09-01T06:28:57.474Z,9.00
2022-09-01T06:29:32.502Z,8.83
2022-09-01T06:30:15.125Z,8.00
2022-09-01T06:31:00.301Z,8.50
2022-09-01T06:31:34.400Z,8.37
2022-09-01T06:32:12.701Z,8.30
2022-09-01T06:32:49.801Z,7.50
2022-09-01T06:33:25.303Z,8.20
2022-09-01T06:34:00.905Z,9.10
2022-09-01T06:34:34.037Z,8.83
2022-09-01T06:35:09.421Z,9.10
2022-09-01T06:35:47.687Z,7.73
2022-09-01T06:36:23.583Z,7.80
2022-09-01T06:36:55.945Z,8.43
2022-09-01T06:37:30.971Z,7.80
2022-09-01T06:38:07.210Z,7.97
2022-09-01T06:38:54.192Z,9.17
2022-09-01T06:39:26.774Z,8.70
2022-09-01T06:40:00.745Z,8.47
2022-09-01T06:40:36.448Z,8.50
2022-09-01T06:41:13.137Z,8.37
2022-09-01T06:41:48.255Z,8.17
2022-09-01T06:42:23.649Z,8.73
2022-09-01T06:43:08.029Z,8.00
2022-09-01T06:43:46.517Z,8.30
2022-09-01T06:44:23.354Z,7.50
2022-09-01T06:45:10.447Z,8.40
2022-09-01T06:45:44.579Z,7.67
2022-09-01T06:46:23.902Z,8.40
2022-09-01T06:46:56.484Z,8.20
2022-09-01T06:47:29.053Z,8.47
2022-09-01T06:48:04.554Z,7.77
2022-09-01T06:48:46.346Z,8.63
2022-09-01T06:49:21.694Z,7.97
2022-09-01T06:49:59.194Z,7.73
2022-09-01T06:51:29.468Z,7.67
2022-09-01T06:52:07.051Z,7.93
2022-09-01T06:53:35.927Z,7.53
2022-09-01T06:54:14.704Z,7.90
2022-09-01T06:54:52.300Z,8.23
2022-09-01T06:55:24.885Z,7.10
2022-09-01T06:55:57.419Z,7.50
2022-09-01T06:56:37.154Z,7.27
2022-09-01T06:58:25.445Z,6.80
2022-09-01T06:58:58.973Z,7.20
2022-09-01T06:59:34.879Z,7.17
2022-09-01T07:00:18.884Z,7.00
2022-09-01T07:00:52.881Z,6.90
2022-09-01T07:01:28.157Z,6.50
2022-09-01T07:02:05.860Z,6.60
2022-09-01T07:02:57.283Z,6.30
2022-09-01T07:04:04.751Z,6.40
2022-09-01T07:04:46.261Z,6.30
2022-09-01T07:10:22.657Z,6.10
2022-09-01T07:12:08.119Z,6.40
2022-09-01T07:12:25.343Z,7.13
2022-09-01T07:13:09.018Z,6.07
2022-09-01T07:16:30.240Z,5.93
2022-09-01T07:16:34.604Z,6.37
2022-09-01T07:17:27.137Z,6.37
2022-09-01T07:17:59.700Z,6.33
2022-09-01T07:18:35.429Z,6.50
2022-09-01T07:19:15.167Z,5.70
2022-09-01T07:20:27.177Z,6.27
2022-09-01T07:21:36.169Z,6.20
2022-09-01T07:22:35.596Z,6.10
2022-09-01T07:23:10.001Z,6.00
2022-09-01T07:24:07.710Z,5.77
2022-09-01T07:24:40.320Z,5.83
2022-09-01T07:26:48.092Z,5.50
2022-09-01T07:28:20.462Z,5.20
2022-09-01T07:29:04.332Z,5.77
2022-09-01T07:29:39.577Z,5.70
2022-09-01T07:30:17.019Z,5.20
2022-09-01T07:30:53.119Z,5.50
2022-09-01T07:31:50.594Z,5.80
2022-09-01T07:32:47.670Z,5.57
2022-09-01T07:35:13.952Z,5.83
2022-09-01T07:39:47.263Z,5.20
2022-09-01T07:42:55.572Z,5.50
2022-09-01T07:43:08.395Z,6.50
2022-09-01T07:43:42.711Z,6.17
2022-09-01T07:44:38.486Z,6.53
2022-09-01T07:45:29.248Z,6.27
2022-09-01T07:47:51.756Z,6.57
2022-09-01T07:48:06.712Z,5.67
2022-09-01T07:49:28.862Z,5.27
2022-09-01T07:51:34.155Z,5.37
2022-09-01T07:51:36.477Z,5.73
2022-09-01T07:52:09.986Z,5.40
2022-09-01T07:52:43.508Z,5.77
2022-09-01T07:53:19.974Z,5.60
2022-09-01T07:53:53.261Z,5.43
2022-09-01T07:54:26.325Z,6.00
2022-09-01T07:55:01.670Z,6.30
2022-09-01T07:55:34.934Z,5.07
2022-09-01T07:56:12.867Z,6.17
2022-09-01T07:56:50.513Z,5.87
2022-09-01T07:57:25.606Z,5.53
2022-09-01T07:57:59.638Z,5.50
2022-09-01T07:58:35.349Z,5.40
2022-09-01T07:59:15.425Z,5.43
2022-09-01T08:00:02.075Z,5.63
2022-09-01T08:01:02.924Z,5.30
2022-09-01T08:01:36.059Z,5.47
2022-09-01T08:02:18.489Z,4.70
2022-09-01T08:02:56.640Z,4.60
2022-09-01T08:03:30.631Z,4.83
2022-09-01T08:04:06.541Z,4.50
2022-09-01T08:04:40.039Z,5.10
2022-09-01T08:05:16.151Z,4.77
2022-09-01T08:05:57.860Z,4.87
2022-09-01T08:06:37.862Z,5.13
2022-09-01T08:07:15.575Z,4.77
2022-09-01T08:07:52.338Z,4.43
2022-09-01T08:08:29.326Z,5.00
2022-09-01T08:09:06.860Z,5.43
2022-09-01T08:09:44.634Z,5.20
2022-09-01T08:10:20.190Z,5.57
2022-09-01T08:11:04.818Z,5.30
2022-09-01T08:12:01.045Z,5.07
2022-09-01T08:12:33.188Z,5.60
2022-09-01T08:13:05.553Z,5.30
2022-09-01T08:13:41.987Z,5.03
2022-09-01T08:14:18.149Z,5.50
2022-09-01T08:16:51.963Z,5.50
2022-09-01T08:17:34.622Z,5.90
2022-09-01T08:18:25.589Z,5.00
2022-09-01T08:18:58.879Z,4.90
2022-09-01T08:19:43.973Z,4.60
2022-09-01T08:20:19.129Z,5.20
2022-09-01T08:21:00.409Z,4.70
2022-09-01T08:21:52.625Z,5.20
2022-09-01T08:22:35.532Z,5.20
2022-09-01T08:23:18.488Z,5.30
2022-09-01T08:23:56.266Z,5.00
2022-09-01T08:24:28.885Z,5.27
2022-09-01T08:25:01.487Z,5.43
2022-09-01T08:25:38.721Z,5.57
2022-09-01T08:26:13.522Z,5.10
2022-09-01T08:26:46.018Z,5.40
2022-09-01T08:27:21.515Z,4.80
2022-09-01T08:27:59.757Z,5.00
2022-09-01T08:28:35.002Z,4.53
2022-09-01T08:29:07.782Z,5.57
2022-09-01T08:29:44.443Z,5.27
2022-09-01T08:30:19.450Z,4.87
2022-09-01T08:30:52.475Z,5.40
2022-09-01T08:31:30.771Z,4.97
2022-09-01T08:32:07.073Z,5.30
2022-09-01T08:32:42.405Z,5.40
2022-09-01T08:33:18.294Z,5.50
2022-09-01T08:33:52.807Z,4.83
2022-09-01T08:34:26.182Z,4.73
2022-09-01T08:35:01.318Z,5.33
2022-09-01T08:35:33.878Z,4.93
2022-09-01T08:36:11.022Z,4.07